createdAt,value
2022-09-28T00:01:25.663Z,10.52
2022-09-28T00:03:59.917Z,10.50
2022-09-28T00:06:30.495Z,10.50
2022-09-28T00:08:58.990Z,10.49
2022-09-28T00:11:28.355Z,10.50
2022-09-28T00:14:02.068Z,10.49
2022-09-28T00:16:33.997Z,10.49
2022-09-28T00:19:03.119Z,10.49
2022-09-28T00:21:34.525Z,10.50
2022-09-28T00:24:15.133Z,10.50
2022-09-28T00:26:55.079Z,10.50
2022-09-28T00:29:27.163Z,10.51
2022-09-28T00:32:03.941Z,10.49
2022-09-28T00:34:41.222Z,10.49
2022-09-28T00:37:10.727Z,10.50
2022-09-28T00:39:44.130Z,10.49
2022-09-28T00:42:21.264Z,10.48
2022-09-28T00:44:57.045Z,10.47
2022-09-28T00:47:44.749Z,10.47
2022-09-28T00:50:33.170Z,10.47
2022-09-28T00:53:09.011Z,10.46
2022-09-28T00:55:51.295Z,10.45
2022-09-28T00:58:24.215Z,10.44
2022-09-28T01:00:56.541Z,10.42
2022-09-28T01:03:27.843Z,10.38
2022-09-28T01:06:00.424Z,10.35
2022-09-28T01:08:31.969Z,10.31
2022-09-28T01:11:01.461Z,10.28
2022-09-28T01:13:31.902Z,10.25
2022-09-28T01:16:13.254Z,10.21
2022-09-28T01:19:13.753Z,10.16
2022-09-28T01:21:59.703Z,10.14
2022-09-28T01:24:47.957Z,10.12
2022-09-28T01:27:36.350Z,10.08
2022-09-28T01:30:08.972Z,10.05
2022-09-28T01:33:08.874Z,10.01
2022-09-28T01:35:46.586Z,9.98
2022-09-28T01:38:27.135Z,9.95
2022-09-28T01:40:58.304Z,9.88
2022-09-28T01:43:32.199Z,9.84
2022-09-28T01:46:17.546Z,9.81
2022-09-28T01:48:54.047Z,9.77
2022-09-28T01:51:48.334Z,9.72
2022-09-28T01:54:26.017Z,9.65
2022-09-28T01:57:24.812Z,9.61
2022-09-28T02:00:02.724Z,9.55
2022-09-28T02:02:54.209Z,9.50
2022-09-28T02:05:37.054Z,9.46
2022-09-28T02:08:28.745Z,9.41
2022-09-28T02:11:11.332Z,9.37
2022-09-28T02:13:46.587Z,9.31
2022-09-28T02:16:27.226Z,9.25
2022-09-28T02:18:56.143Z,9.17
2022-09-28T02:21:38.985Z,9.12
2022-09-28T02:24:16.248Z,9.08
2022-09-28T02:26:48.264Z,9.04
2022-09-28T02:29:16.978Z,9.00
2022-09-28T02:31:45.520Z,8.98
2022-09-28T02:34:13.906Z,8.96
2022-09-28T02:36:42.332Z,8.95
2022-09-28T02:39:16.985Z,8.93
2022-09-28T02:42:21.424Z,8.93
2022-09-28T02:44:58.978Z,8.93
2022-09-28T02:47:54.138Z,8.95
2022-09-28T02:51:00.434Z,8.98
2022-09-28T02:53:45.055Z,9.00
2022-09-28T02:56:43.711Z,9.03
2022-09-28T02:59:35.877Z,9.06
2022-09-28T03:02:26.203Z,9.08
2022-09-28T03:05:22.208Z,9.12
2022-09-28T03:07:50.276Z,9.14
2022-09-28T03:10:31.189Z,9.15
2022-09-28T03:13:00.847Z,9.16
2022-09-28T03:15:32.772Z,9.17
2022-09-28T03:18:01.411Z,9.19
2022-09-28T03:20:31.898Z,9.20
2022-09-28T03:23:23.303Z,9.22
2022-09-28T03:25:49.933Z,9.23
2022-09-28T03:28:18.229Z,9.23
2022-09-28T03:30:46.446Z,9.22
2022-09-28T03:33:14.805Z,9.20
2022-09-28T03:35:46.999Z,9.19
2022-09-28T03:38:15.442Z,9.15
2022-09-28T03:40:45.111Z,9.12
2022-09-28T03:43:13.389Z,9.09
2022-09-28T03:45:42.473Z,9.08
2022-09-28T03:48:12.789Z,9.08
2022-09-28T03:50:41.046Z,9.10
2022-09-28T03:53:11.200Z,9.10
2022-09-28T03:55:39.515Z,9.10
2022-09-28T03:58:07.781Z,9.08
2022-09-28T04:00:38.425Z,9.05
2022-09-28T04:03:35.701Z,9.00
2022-09-28T04:06:04.482Z,8.94
2022-09-28T04:08:33.768Z,8.88
2022-09-28T04:11:02.615Z,8.82
2022-09-28T04:13:31.833Z,8.76
2022-09-28T04:16:01.720Z,8.68
2022-09-28T04:18:33.692Z,8.58
2022-09-28T04:21:25.378Z,8.50
2022-09-28T04:24:02.636Z,8.43
2022-09-28T04:26:31.064Z,8.38
2022-09-28T04:29:18.319Z,8.32
2022-09-28T04:31:55.386Z,8.25
2022-09-28T04:34:37.259Z,8.19
2022-09-28T04:37:10.909Z,8.11
2022-09-28T04:39:42.258Z,8.05
2022-09-28T04:42:13.686Z,7.98
2022-09-28T04:44:42.006Z,7.92
2022-09-28T04:47:11.091Z,7.86
2022-09-28T04:50:23.932Z,7.77
2022-09-28T04:53:07.708Z,7.70
2022-09-28T04:55:36.026Z,7.64
2022-09-28T04:58:04.786Z,7.59
2022-09-28T05:00:35.521Z,7.54
2022-09-28T05:03:42.531Z,7.49
2022-09-28T05:06:36.716Z,7.46
2022-09-28T05:09:09.745Z,7.45
2022-09-28T05:11:38.038Z,7.44
2022-09-28T05:14:12.559Z,7.43
2022-09-28T05:16:41.499Z,7.42
2022-09-28T05:19:39.026Z,7.42
2022-09-28T05:22:11.733Z,7.42
2022-09-28T05:24:43.487Z,7.43
2022-09-28T05:27:11.902Z,7.46
2022-09-28T05:29:40.148Z,7.48
2022-09-28T05:32:27.394Z,7.50
2022-09-28T05:35:34.240Z,7.54
2022-09-28T05:38:05.572Z,7.59
2022-09-28T05:40:34.636Z,7.66
2022-09-28T05:43:02.996Z,7.75
2022-09-28T05:45:32.659Z,7.85
2022-09-28T05:48:01.133Z,7.95
2022-09-28T05:50:29.426Z,8.06
2022-09-28T05:53:02.773Z,8.16
2022-09-28T05:55:31.676Z,8.26
2022-09-28T05:58:01.405Z,8.37
2022-09-28T06:00:32.461Z,8.48
2022-09-28T06:03:09.127Z,8.59
2022-09-28T06:05:39.590Z,8.69
2022-09-28T06:08:10.727Z,8.78
2022-09-28T06:10:41.070Z,8.86
2022-09-28T06:13:10.595Z,8.96
2022-09-28T06:15:42.718Z,9.06
2022-09-28T06:18:15.159Z,9.16
2022-09-28T06:21:11.051Z,9.29
2022-09-28T06:23:48.798Z,9.41
2022-09-28T06:26:18.423Z,9.53
2022-09-28T06:28:47.290Z,9.64
2022-09-28T06:31:16.013Z,9.75
2022-09-28T06:33:48.967Z,9.88
2022-09-28T06:36:21.075Z,10.01
2022-09-28T06:38:50.950Z,10.16
2022-09-28T06:41:19.670Z,10.33
2022-09-28T06:43:48.689Z,10.51
2022-09-28T06:46:38.297Z,10.72
2022-09-28T06:49:30.393Z,10.95
2022-09-28T06:52:16.965Z,11.13
2022-09-28T06:55:06.580Z,11.30
2022-09-28T06:58:02.877Z,11.45
2022-09-28T07:00:35.437Z,11.53
2022-09-28T07:03:10.678Z,11.63
2022-09-28T07:05:55.308Z,11.72
2022-09-28T07:09:19.903Z,11.81
2022-09-28T07:12:22.055Z,11.93
2022-09-28T07:14:57.522Z,12.02
2022-09-28T07:17:28.431Z,12.14
2022-09-28T07:20:08.941Z,12.25
2022-09-28T07:22:45.441Z,12.33
2022-09-28T07:25:19.514Z,12.40
2022-09-28T07:28:12.413Z,12.49
2022-09-28T07:30:59.413Z,12.59
2022-09-28T07:33:54.184Z,12.71
2022-09-28T07:36:45.563Z,12.85
2022-09-28T07:39:13.842Z,12.93
2022-09-28T07:41:43.219Z,13.05
2022-09-28T07:44:11.628Z,13.15
2022-09-28T07:46:43.569Z,13.26
2022-09-28T07:49:25.812Z,13.35
2022-09-28T07:52:17.082Z,13.45
2022-09-28T07:55:07.597Z,13.55
2022-09-28T07:58:01.248Z,13.67
2022-09-28T08:00:48.235Z,13.78
2022-09-28T08:03:18.735Z,13.88
2022-09-28T08:05:47.607Z,13.99
2022-09-28T08:08:16.417Z,14.11
2022-09-28T08:10:47.204Z,14.16
2022-09-28T08:13:39.776Z,14.28
2022-09-28T08:16:28.609Z,14.41
2022-09-28T08:19:08.505Z,14.48
2022-09-28T08:21:46.103Z,14.63
2022-09-28T08:24:16.920Z,14.84
2022-09-28T08:26:46.231Z,15.06
2022-09-28T08:29:17.187Z,15.13
2022-09-28T08:32:01.698Z,15.18
2022-09-28T08:34:30.396Z,15.36
2022-09-28T08:36:59.372Z,15.39
2022-09-28T08:39:42.878Z,15.41
2022-09-28T08:42:36.308Z,15.33
2022-09-28T08:45:36.547Z,15.39
2022-09-28T08:48:56.210Z,15.53
2022-09-28T08:52:04.673Z,15.66
2022-09-28T08:54:50.491Z,15.75
2022-09-28T08:57:49.564Z,15.80
2022-09-28T09:00:35.550Z,15.87
2022-09-28T09:03:06.171Z,16.02
2022-09-28T09:06:07.918Z,16.30
2022-09-28T09:09:14.286Z,16.68
2022-09-28T09:12:10.564Z,16.83
2022-09-28T09:15:05.175Z,17.00
2022-09-28T09:17:38.872Z,17.15
2022-09-28T09:20:45.802Z,17.35
2022-09-28T09:23:43.402Z,17.43
2022-09-28T09:26:24.186Z,17.39
2022-09-28T09:29:23.669Z,17.37
2022-09-28T09:32:22.425Z,17.42
2022-09-28T09:35:05.694Z,17.76
2022-09-28T09:38:27.926Z,18.05
2022-09-28T09:41:50.823Z,18.34
2022-09-28T09:44:47.320Z,18.54
2022-09-28T09:47:53.929Z,18.56
2022-09-28T09:50:30.925Z,18.66
2022-09-28T09:53:07.369Z,18.80
2022-09-28T09:55:46.927Z,18.91
2022-09-28T09:58:33.006Z,18.87
2022-09-28T10:01:13.166Z,18.99
2022-09-28T10:04:01.962Z,18.97
2022-09-28T10:06:37.664Z,18.92
2022-09-28T10:09:16.929Z,19.09
2022-09-28T10:11:52.226Z,19.34
2022-09-28T10:14:23.338Z,19.48
2022-09-28T10:17:16.347Z,19.36
2022-09-28T10:20:04.681Z,19.21
2022-09-28T10:22:33.475Z,19.13
2022-09-28T10:25:10.008Z,18.82
2022-09-28T10:27:45.872Z,18.51
2022-09-28T10:30:19.205Z,18.42
2022-09-28T10:32:50.822Z,18.43
2022-09-28T10:35:19.025Z,18.51
2022-09-28T10:38:17.409Z,18.70
2022-09-28T10:40:48.485Z,18.81
2022-09-28T10:43:26.278Z,19.04
2022-09-28T10:46:11.431Z,19.09
2022-09-28T10:49:01.482Z,18.88
2022-09-28T10:51:41.962Z,18.65
2022-09-28T10:54:16.877Z,18.43
2022-09-28T10:56:50.942Z,18.22
2022-09-28T10:59:29.214Z,18.04
2022-09-28T11:02:35.639Z,17.93
2022-09-28T11:05:28.193Z,17.92
2022-09-28T11:08:02.939Z,17.97
2022-09-28T11:10:37.535Z,18.07
2022-09-28T11:13:14.506Z,18.15
2022-09-28T11:15:46.530Z,18.12
2022-09-28T11:18:34.618Z,18.03
2022-09-28T11:21:12.284Z,17.95
2022-09-28T11:23:44.984Z,17.85
2022-09-28T11:26:20.903Z,17.74
2022-09-28T11:28:55.610Z,17.68
2022-09-28T11:31:32.670Z,17.72
2022-09-28T11:34:16.769Z,17.80
2022-09-28T11:37:24.001Z,17.91
2022-09-28T11:40:28.483Z,18.04
2022-09-28T11:43:24.958Z,18.21
2022-09-28T11:46:25.849Z,18.30
2022-09-28T11:49:01.399Z,18.56
2022-09-28T11:51:36.005Z,18.92
2022-09-28T11:54:21.372Z,19.33
2022-09-28T11:56:51.522Z,19.70
2022-09-28T11:59:41.160Z,20.02
2022-09-28T12:02:33.561Z,20.33
2022-09-28T12:05:21.323Z,20.58
2022-09-28T12:08:08.065Z,20.83
2022-09-28T12:11:13.007Z,20.90
2022-09-28T12:14:34.531Z,20.94
2022-09-28T12:17:20.217Z,20.96
2022-09-28T12:19:58.270Z,20.89
2022-09-28T12:22:41.208Z,20.81
2022-09-28T12:25:16.293Z,20.95
2022-09-28T12:28:14.559Z,21.01
2022-09-28T12:30:45.511Z,21.09
2022-09-28T12:33:18.104Z,21.15
2022-09-28T12:36:07.195Z,21.32
2022-09-28T12:38:38.496Z,21.44
2022-09-28T12:41:19.924Z,21.40
2022-09-28T12:44:06.646Z,21.39
2022-09-28T12:46:53.819Z,21.30
2022-09-28T12:50:33.326Z,21.19
2022-09-28T12:52:51.907Z,21.06
2022-09-28T12:55:43.686Z,21.02
2022-09-28T12:58:26.919Z,20.97
2022-09-28T13:01:17.273Z,20.84
2022-09-28T13:04:09.228Z,20.81
2022-09-28T13:06:58.205Z,20.98
2022-09-28T13:09:29.058Z,20.95
2022-09-28T13:12:35.257Z,21.02
2022-09-28T13:15:23.722Z,21.19
2022-09-28T13:18:29.386Z,21.31
2022-09-28T13:21:26.427Z,21.30
2022-09-28T13:24:09.052Z,21.22
2022-09-28T13:26:49.822Z,21.08
2022-09-28T13:29:20.252Z,21.05
2022-09-28T13:31:57.622Z,21.07
2022-09-28T13:34:29.750Z,20.96
2022-09-28T13:37:24.155Z,20.95
2022-09-28T13:40:00.195Z,20.96
2022-09-28T13:42:37.195Z,20.89
2022-09-28T13:45:35.243Z,20.75
2022-09-28T13:48:24.950Z,20.53
2022-09-28T13:51:26.463Z,20.40
2022-09-28T13:53:57.755Z,20.33
2022-09-28T13:56:38.247Z,20.22
2022-09-28T13:59:15.674Z,20.17
2022-09-28T14:01:56.015Z,20.20
2022-09-28T14:04:47.177Z,20.19
2022-09-28T14:07:44.361Z,20.12
2022-09-28T14:10:44.678Z,19.91
2022-09-28T14:13:13.114Z,19.67
2022-09-28T14:15:44.558Z,19.42
2022-09-28T14:18:22.924Z,19.20
2022-09-28T14:21:02.166Z,18.96
2022-09-28T14:23:31.063Z,18.71
2022-09-28T14:26:13.315Z,18.52
2022-09-28T14:29:06.034Z,18.31
2022-09-28T14:31:42.658Z,18.09
2022-09-28T14:34:24.059Z,17.93
2022-09-28T14:37:10.970Z,17.69
2022-09-28T14:40:03.124Z,17.48
2022-09-28T14:42:31.722Z,17.33
2022-09-28T14:45:06.363Z,17.15
2022-09-28T14:47:35.750Z,16.93
2022-09-28T14:50:34.193Z,16.71
2022-09-28T14:53:12.291Z,16.51
2022-09-28T14:55:50.416Z,16.42
2022-09-28T14:58:46.296Z,16.33
2022-09-28T15:01:22.998Z,16.18
2022-09-28T15:03:59.033Z,16.06
2022-09-28T15:06:45.866Z,15.93
2022-09-28T15:09:32.197Z,15.82
2022-09-28T15:12:24.663Z,15.73
2022-09-28T15:15:08.655Z,15.63
2022-09-28T15:17:40.379Z,15.51
2022-09-28T15:20:23.310Z,15.41
2022-09-28T15:22:58.666Z,15.34
2022-09-28T15:25:32.811Z,15.27
2022-09-28T15:28:14.098Z,15.17
2022-09-28T15:30:42.555Z,15.10
2022-09-28T15:33:44.025Z,14.99
2022-09-28T15:36:34.523Z,14.85
2022-09-28T15:39:10.766Z,14.77
2022-09-28T15:41:39.145Z,14.73
2022-09-28T15:44:10.558Z,14.68
2022-09-28T15:46:42.557Z,14.59
2022-09-28T15:49:26.024Z,14.52
2022-09-28T15:51:56.400Z,14.46
2022-09-28T15:54:29.590Z,14.39
2022-09-28T15:57:02.701Z,14.34
2022-09-28T15:59:36.896Z,14.30
2022-09-28T16:02:18.844Z,14.23
2022-09-28T16:04:55.280Z,14.17
2022-09-28T16:07:31.179Z,14.09
2022-09-28T16:10:05.561Z,14.03
2022-09-28T16:12:36.566Z,13.98
2022-09-28T16:15:12.887Z,13.94
2022-09-28T16:17:41.788Z,13.90
2022-09-28T16:20:24.990Z,13.85
2022-09-28T16:22:54.057Z,13.80
2022-09-28T16:25:25.851Z,13.77
2022-09-28T16:27:55.443Z,13.72
2022-09-28T16:30:25.422Z,13.69
2022-09-28T16:32:57.696Z,13.66
2022-09-28T16:35:30.554Z,13.60
2022-09-28T16:38:04.077Z,13.56
2022-09-28T16:40:33.646Z,13.53
2022-09-28T16:43:05.795Z,13.51
2022-09-28T16:45:35.388Z,13.48
2022-09-28T16:48:04.650Z,13.46
2022-09-28T16:50:33.020Z,13.45
2022-09-28T16:53:45.934Z,13.45
2022-09-28T16:56:14.153Z,13.47
2022-09-28T16:58:42.629Z,13.49
2022-09-28T17:01:12.288Z,13.50
2022-09-28T17:03:46.798Z,13.51
2022-09-28T17:06:17.465Z,13.51
2022-09-28T17:08:45.722Z,13.48
2022-09-28T17:11:20.481Z,13.45
2022-09-28T17:13:59.109Z,13.41
2022-09-28T17:19:22.966Z,13.36
2022-09-28T17:21:52.423Z,13.33
2022-09-28T17:24:21.386Z,13.33
2022-09-28T17:26:52.119Z,13.32
2022-09-28T17:29:20.647Z,13.30
2022-09-28T17:31:48.923Z,13.29
2022-09-28T17:34:17.330Z,13.29
2022-09-28T17:36:45.957Z,13.28
2022-09-28T17:39:17.580Z,13.28
2022-09-28T17:41:46.336Z,13.28
2022-09-28T17:44:18.036Z,13.29
2022-09-28T17:46:49.724Z,13.30
2022-09-28T17:49:19.434Z,13.31
2022-09-28T17:51:48.268Z,13.32
2022-09-28T17:54:20.970Z,13.33
2022-09-28T17:56:49.394Z,13.32
2022-09-28T17:59:19.051Z,13.32
2022-09-28T18:01:48.574Z,13.31
2022-09-28T18:04:39.872Z,13.30
2022-09-28T18:07:05.923Z,13.30
2022-09-28T18:09:34.414Z,13.31
2022-09-28T18:12:04.734Z,13.32
2022-09-28T18:14:33.379Z,13.32
2022-09-28T18:17:01.942Z,13.32
2022-09-28T18:19:32.287Z,13.33
2022-09-28T18:22:02.050Z,13.35
2022-09-28T18:24:37.552Z,13.37
2022-09-28T18:29:48.374Z,13.39
2022-09-28T18:32:16.659Z,13.40
2022-09-28T18:34:44.815Z,13.39
2022-09-28T18:37:13.043Z,13.39
2022-09-28T18:39:41.254Z,13.38
2022-09-28T18:42:10.525Z,13.38
2022-09-28T18:44:38.941Z,13.38
2022-09-28T18:47:07.111Z,13.38
2022-09-28T18:49:35.408Z,13.38
2022-09-28T18:52:03.675Z,13.37
2022-09-28T18:54:31.832Z,13.38
2022-09-28T18:57:00.451Z,13.39
2022-09-28T18:59:28.781Z,13.39
2022-09-28T19:01:57.178Z,13.40
2022-09-28T19:04:25.538Z,13.40
2022-09-28T19:06:54.623Z,13.38
2022-09-28T19:09:24.851Z,13.36
2022-09-28T19:11:53.278Z,13.33
2022-09-28T19:14:21.784Z,13.31
2022-09-28T19:16:50.123Z,13.29
2022-09-28T19:19:20.749Z,13.25
2022-09-28T19:21:49.223Z,13.20
2022-09-28T19:24:19.924Z,13.14
2022-09-28T19:26:49.580Z,13.11
2022-09-28T19:29:17.866Z,13.08
2022-09-28T19:31:46.530Z,13.05
2022-09-28T19:34:15.196Z,13.04
2022-09-28T19:36:43.786Z,13.02
2022-09-28T19:39:15.874Z,13.01
2022-09-28T19:41:49.577Z,13.00
2022-09-28T19:44:27.888Z,12.99
2022-09-28T19:47:06.989Z,13.00
2022-09-28T19:49:38.777Z,12.99
2022-09-28T19:52:16.834Z,13.00
2022-09-28T19:54:59.348Z,12.99
2022-09-28T19:57:30.619Z,12.98
2022-09-28T20:00:03.429Z,12.98
2022-09-28T20:02:37.139Z,12.96
2022-09-28T20:05:05.819Z,12.94
2022-09-28T20:07:36.306Z,12.94
2022-09-28T20:10:05.106Z,12.91
2022-09-28T20:12:33.761Z,12.88
2022-09-28T20:15:02.082Z,12.85
2022-09-28T20:17:31.401Z,12.82
2022-09-28T20:19:59.764Z,12.75
2022-09-28T20:22:28.133Z,12.69
2022-09-28T20:24:57.060Z,12.65
2022-09-28T20:27:27.220Z,12.59
2022-09-28T20:29:55.554Z,12.56
2022-09-28T20:32:23.830Z,12.53
2022-09-28T20:34:52.247Z,12.52
2022-09-28T20:37:20.619Z,12.50
2022-09-28T20:39:48.977Z,12.47
2022-09-28T20:42:17.368Z,12.44
2022-09-28T20:44:45.779Z,12.42
2022-09-28T20:47:14.174Z,12.40
2022-09-28T20:49:42.585Z,12.37
2022-09-28T20:52:11.497Z,12.33
2022-09-28T20:54:39.824Z,12.28
2022-09-28T20:57:17.567Z,12.25
2022-09-28T20:59:53.600Z,12.23
2022-09-28T21:02:23.206Z,12.21
2022-09-28T21:04:51.729Z,12.20
2022-09-28T21:07:20.241Z,12.20
2022-09-28T21:09:48.720Z,12.21
2022-09-28T21:12:17.263Z,12.21
2022-09-28T21:14:45.754Z,12.22
2022-09-28T21:17:14.224Z,12.22
2022-09-28T21:19:42.615Z,12.23
2022-09-28T21:22:11.087Z,12.23
2022-09-28T21:24:39.584Z,12.24
2022-09-28T21:27:07.899Z,12.24
2022-09-28T21:29:36.179Z,12.24
2022-09-28T21:32:04.507Z,12.21
2022-09-28T21:34:32.876Z,12.18
2022-09-28T21:37:01.152Z,12.16
2022-09-28T21:39:29.431Z,12.14
2022-09-28T21:41:57.786Z,12.13
2022-09-28T21:44:26.075Z,12.11
2022-09-28T21:46:54.389Z,12.06
2022-09-28T21:49:22.702Z,12.04
2022-09-28T21:51:52.181Z,12.00
2022-09-28T21:54:20.869Z,11.95
2022-09-28T21:56:49.227Z,11.91
2022-09-28T21:59:17.579Z,11.88
2022-09-28T22:01:46.434Z,11.87
2022-09-28T22:04:14.948Z,11.88
2022-09-28T22:06:43.250Z,11.90
2022-09-28T22:09:11.593Z,11.93
2022-09-28T22:11:40.041Z,11.94
2022-09-28T22:14:10.938Z,11.95
2022-09-28T22:16:39.266Z,11.96
2022-09-28T22:19:07.678Z,11.97
2022-09-28T22:21:36.105Z,11.98
2022-09-28T22:24:07.459Z,12.00
2022-09-28T22:26:37.368Z,11.99
2022-09-28T22:29:08.109Z,11.97
2022-09-28T22:31:39.382Z,11.94
2022-09-28T22:34:08.269Z,11.92
2022-09-28T22:36:36.961Z,11.89
2022-09-28T22:39:06.217Z,11.87
2022-09-28T22:41:34.984Z,11.85
2022-09-28T22:44:03.374Z,11.85
2022-09-28T22:46:32.698Z,11.85
2022-09-28T22:49:01.816Z,11.86
2022-09-28T22:51:30.825Z,11.85
2022-09-28T22:53:59.315Z,11.84
2022-09-28T22:56:28.134Z,11.81
2022-09-28T22:58:56.810Z,11.80
2022-09-28T23:01:27.784Z,11.81
2022-09-28T23:03:57.769Z,11.78
2022-09-28T23:06:29.175Z,11.79
2022-09-28T23:08:57.590Z,11.78
2022-09-28T23:11:25.912Z,11.77
2022-09-28T23:13:57.043Z,11.76
2022-09-28T23:16:26.932Z,11.74
2022-09-28T23:18:56.310Z,11.72
2022-09-28T23:21:26.593Z,11.72
2022-09-28T23:24:01.690Z,11.72
2022-09-28T23:26:32.807Z,11.71
2022-09-28T23:29:01.443Z,11.69
2022-09-28T23:31:32.120Z,11.68
2022-09-28T23:34:05.934Z,11.67
2022-09-28T23:36:35.318Z,11.65
2022-09-28T23:39:03.914Z,11.64
2022-09-28T23:41:32.653Z,11.62
2022-09-28T23:44:01.089Z,11.60
2022-09-28T23:46:29.525Z,11.57
2022-09-28T23:48:58.143Z,11.53
2022-09-28T23:51:26.681Z,11.51
2022-09-28T23:53:55.030Z,11.49
2022-09-28T23:56:23.315Z,11.49
2022-09-28T23:58:51.632Z,11.49
